Time;durP1;ratioP1;P1;durP2;ratioP2;P2;SDS_P1;SDS_P2;PMS_P1;PMS_P2;Temp;Humidity;BMP_temperature;BMP_pressure;BME280_temperature;BME280_humidity;BME280_pressure;Samples;Min_cycle;Max_cycle;Signal;HPM_P1;HPM_P2
2024/01/12 00:00:46;;;;;;;6.95;3.40;;;3.30;83.30;;;;;;4986807;28;20041;-80
2024/01/12 00:03:11;;;;;;;6.47;3.22;;;3.20;83.20;;;;;;4988365;28;20033;-81
2024/01/12 00:05:37;;;;;;;7.20;3.50;;;3.20;83.20;;;;;;4989225;28;20054;-80
2024/01/12 00:08:03;;;;;;;6.05;3.20;;;3.20;83.30;;;;;;4995596;28;20025;-82
2024/01/12 00:10:28;;;;;;;6.65;3.53;;;3.20;83.40;;;;;;4982823;28;20038;-82
2024/01/12 00:12:54;;;;;;;6.82;3.40;;;3.20;83.40;;;;;;4979637;28;20034;-79
2024/01/12 00:15:20;;;;;;;6.28;2.90;;;3.30;83.40;;;;;;4981462;28;20182;-80
2024/01/12 00:17:45;;;;;;;6.53;3.10;;;3.30;83.30;;;;;;4987239;28;20034;-82
2024/01/12 00:20:11;;;;;;;6.60;3.05;;;3.30;83.20;;;;;;5008674;28;20117;-79
2024/01/12 00:22:36;;;;;;;6.03;2.90;;;3.30;83.20;;;;;;4992050;28;20015;-80
2024/01/12 00:25:02;;;;;;;6.15;2.78;;;3.30;83.30;;;;;;4978020;28;20526;-80
2024/01/12 00:27:28;;;;;;;5.47;2.72;;;3.30;83.30;;;;;;5004851;28;20128;-81
2024/01/12 00:29:53;;;;;;;5.97;3.13;;;3.30;83.30;;;;;;4987259;28;20400;-81
2024/01/12 00:32:19;;;;;;;4.85;2.60;;;3.30;83.20;;;;;;4992985;28;20045;-81
2024/01/12 00:34:44;;;;;;;4.63;2.50;;;3.30;83.40;;;;;;4987158;28;20022;-80
2024/01/12 00:37:10;;;;;;;4.70;2.42;;;3.30;83.50;;;;;;5006490;28;20053;-80
2024/01/12 00:39:36;;;;;;;5.45;2.78;;;3.40;83.50;;;;;;4994799;28;20026;-81
2024/01/12 00:42:03;;;;;;;6.80;2.70;;;3.40;83.50;;;;;;4983958;28;20018;-78
2024/01/12 00:44:29;;;;;;;5.55;2.50;;;3.40;83.50;;;;;;4982574;28;20018;-80
2024/01/12 00:46:55;;;;;;;4.13;2.13;;;3.40;83.40;;;;;;4991494;28;20022;-80
2024/01/12 00:49:21;;;;;;;4.70;2.63;;;3.50;83.50;;;;;;4998239;28;20086;-81
2024/01/12 00:51:47;;;;;;;6.18;2.50;;;3.50;83.50;;;;;;4986566;28;20026;-79
2024/01/12 00:54:13;;;;;;;5.95;2.80;;;3.50;83.40;;;;;;4995878;28;20498;-80
2024/01/12 00:56:39;;;;;;;4.68;2.17;;;3.50;83.40;;;;;;4991500;28;20037;-78
2024/01/12 00:59:05;;;;;;;4.38;2.08;;;3.50;83.40;;;;;;4992518;28;20030;-80
2024/01/12 01:01:31;;;;;;;7.65;2.47;;;3.50;83.40;;;;;;4987467;28;20022;-79
2024/01/12 01:03:57;;;;;;;6.60;2.47;;;3.50;83.30;;;;;;4989851;28;20060;-80
2024/01/12 01:06:22;;;;;;;6.10;2.40;;;3.50;83.30;;;;;;5006146;28;20031;-79
2024/01/12 01:08:48;;;;;;;5.00;2.38;;;3.50;83.30;;;;;;4993671;28;20034;-81
2024/01/12 01:11:15;;;;;;;3.95;2.33;;;3.50;83.30;;;;;;4986584;28;20023;-79
2024/01/12 01:13:41;;;;;;;5.47;2.30;;;3.50;83.30;;;;;;4987789;28;20070;-80
2024/01/12 01:16:07;;;;;;;4.15;2.20;;;3.50;83.40;;;;;;4989814;28;20045;-78
2024/01/12 01:18:32;;;;;;;3.88;1.95;;;3.50;83.40;;;;;;4992635;28;20021;-80
2024/01/12 01:20:58;;;;;;;4.20;2.38;;;3.50;83.50;;;;;;4992819;28;20050;-78
2024/01/12 01:23:24;;;;;;;5.13;2.72;;;3.60;83.50;;;;;;4984077;28;20030;-81
2024/01/12 01:25:50;;;;;;;3.72;1.88;;;3.60;83.50;;;;;;4988240;28;20034;-80
2024/01/12 01:28:16;;;;;;;4.57;1.85;;;3.70;83.50;;;;;;4992809;28;20030;-79
2024/01/12 01:30:42;;;;;;;4.05;1.90;;;3.70;83.40;;;;;;4990519;28;20027;-79
2024/01/12 01:33:07;;;;;;;4.35;1.67;;;3.70;83.40;;;;;;4984307;28;20034;-81
2024/01/12 01:35:33;;;;;;;3.60;1.70;;;3.70;83.40;;;;;;4989856;28;20022;-81
2024/01/12 01:37:59;;;;;;;3.55;1.60;;;3.70;83.40;;;;;;4992402;28;20022;-79
2024/01/12 01:40:24;;;;;;;4.45;2.20;;;3.70;83.40;;;;;;4992232;28;20054;-81
2024/01/12 01:42:50;;;;;;;4.13;2.00;;;3.80;83.50;;;;;;4991497;28;20077;-82
2024/01/12 01:45:16;;;;;;;3.10;1.60;;;3.80;83.50;;;;;;4990151;28;20023;-80
2024/01/12 01:47:43;;;;;;;4.78;1.95;;;3.70;83.40;;;;;;4993600;28;20026;-80
2024/01/12 01:50:10;;;;;;;3.45;1.92;;;3.70;83.60;;;;;;4984065;28;20054;-82
2024/01/12 01:52:37;;;;;;;3.92;2.20;;;3.70;83.70;;;;;;4981337;28;20038;-79
2024/01/12 01:55:03;;;;;;;3.80;1.85;;;3.70;83.60;;;;;;5008338;28;20057;-80
2024/01/12 01:57:30;;;;;;;5.15;2.40;;;3.70;83.60;;;;;;4988036;28;20070;-79
2024/01/12 01:59:56;;;;;;;3.95;2.05;;;3.70;83.60;;;;;;5009500;28;20025;-84
2024/01/12 02:02:23;;;;;;;4.45;2.20;;;3.70;83.60;;;;;;4982290;28;20019;-81
2024/01/12 02:04:51;;;;;;;2.92;1.80;;;3.70;83.60;;;;;;4981426;28;20097;-83
2024/01/12 02:07:16;;;;;;;4.30;2.30;;;3.70;83.60;;;;;;4987515;28;20026;-82
2024/01/12 02:09:42;;;;;;;5.03;2.22;;;3.70;83.50;;;;;;4983145;28;20026;-80
2024/01/12 02:12:07;;;;;;;3.45;2.25;;;3.70;83.50;;;;;;4976409;28;20030;-80
2024/01/12 02:14:33;;;;;;;4.65;1.98;;;3.70;83.50;;;;;;4982077;28;20078;-82
2024/01/12 02:16:59;;;;;;;3.97;1.92;;;3.70;83.60;;;;;;5012219;28;20019;-78
2024/01/12 02:19:24;;;;;;;3.65;2.03;;;3.70;83.60;;;;;;5006741;28;20548;-80
2024/01/12 02:21:50;;;;;;;4.35;1.83;;;3.80;83.70;;;;;;5005049;28;20043;-77
2024/01/12 02:24:15;;;;;;;5.32;2.05;;;3.80;83.70;;;;;;4985493;28;20027;-83
2024/01/12 02:26:41;;;;;;;4.93;2.10;;;3.80;83.60;;;;;;4991979;28;20042;-79
2024/01/12 02:29:07;;;;;;;4.00;2.00;;;3.80;83.60;;;;;;4981670;28;20031;-78
2024/01/12 02:31:33;;;;;;;4.40;2.28;;;3.80;83.50;;;;;;4982065;28;21304;-80
2024/01/12 02:33:58;;;;;;;3.53;1.80;;;3.80;83.50;;;;;;4983221;28;20031;-79
2024/01/12 02:36:27;;;;;;;5.93;2.20;;;3.80;83.50;;;;;;4990602;28;20033;-79
2024/01/12 02:38:55;;;;;;;2.95;1.80;;;3.80;83.50;;;;;;4978414;28;20038;-79
2024/01/12 02:41:20;;;;;;;2.90;1.60;;;3.80;83.50;;;;;;4988387;28;20409;-78
2024/01/12 02:43:47;;;;;;;3.67;1.80;;;3.80;83.60;;;;;;4977555;28;20022;-80
2024/01/12 02:46:12;;;;;;;3.88;2.00;;;3.80;83.60;;;;;;4976187;28;20030;-77
2024/01/12 02:48:38;;;;;;;3.20;2.15;;;3.80;83.60;;;;;;5005578;28;20532;-82
2024/01/12 02:51:04;;;;;;;3.78;1.80;;;3.80;83.60;;;;;;4983322;28;20030;-78
2024/01/12 02:53:30;;;;;;;4.57;1.63;;;3.80;83.60;;;;;;4987102;28;20030;-80
2024/01/12 02:55:55;;;;;;;3.40;1.88;;;3.90;83.70;;;;;;5006825;28;20046;-77
2024/01/12 02:58:21;;;;;;;2.50;1.67;;;3.80;83.60;;;;;;4982597;28;20058;-79
2024/01/12 03:00:47;;;;;;;3.05;1.70;;;3.90;83.60;;;;;;4985320;28;20050;-81
2024/01/12 03:03:12;;;;;;;6.55;2.45;;;3.80;83.50;;;;;;4988889;28;20053;-75
2024/01/12 03:05:38;;;;;;;4.00;2.03;;;3.80;83.60;;;;;;4980997;28;20035;-81
2024/01/12 03:08:03;;;;;;;3.70;1.80;;;3.80;83.60;;;;;;4979367;28;20050;-79
2024/01/12 03:10:29;;;;;;;4.25;1.80;;;3.80;83.60;;;;;;4989002;28;20030;-80
2024/01/12 03:12:55;;;;;;;2.90;1.58;;;3.80;83.60;;;;;;4979120;28;20018;-77
2024/01/12 03:15:20;;;;;;;2.92;1.83;;;3.90;83.70;;;;;;4987020;28;20448;-80
2024/01/12 03:17:46;;;;;;;3.33;1.45;;;3.90;83.60;;;;;;4972976;28;20023;-80
2024/01/12 03:20:11;;;;;;;4.20;1.50;;;3.90;83.60;;;;;;4981999;28;20038;-81
2024/01/12 03:22:37;;;;;;;3.33;1.60;;;3.90;83.60;;;;;;4975883;28;20029;-77
2024/01/12 03:25:03;;;;;;;4.43;1.63;;;3.90;83.60;;;;;;4984252;28;20381;-78
2024/01/12 03:27:28;;;;;;;4.25;2.10;;;3.90;83.60;;;;;;4983451;28;20437;-81
2024/01/12 03:29:54;;;;;;;2.97;1.63;;;3.90;83.60;;;;;;4996164;28;20026;-77
2024/01/12 03:32:23;;;;;;;3.10;1.48;;;3.90;83.60;;;;;;4981718;28;20062;-77
2024/01/12 03:34:48;;;;;;;3.63;1.50;;;3.90;83.70;;;;;;4984332;28;20041;-80
2024/01/12 03:37:14;;;;;;;2.90;1.50;;;3.90;83.60;;;;;;4980423;28;20018;-79
2024/01/12 03:39:39;;;;;;;4.20;1.55;;;4.00;83.70;;;;;;4990592;28;20316;-80
2024/01/12 03:42:05;;;;;;;4.93;1.77;;;4.00;83.60;;;;;;4990350;28;20019;-80
2024/01/12 03:44:31;;;;;;;3.30;1.42;;;4.00;83.60;;;;;;4977547;28;20493;-82
2024/01/12 03:46:56;;;;;;;4.32;1.48;;;4.00;83.60;;;;;;4971680;28;20034;-81
2024/01/12 03:49:22;;;;;;;3.00;1.50;;;3.90;83.60;;;;;;4973114;28;20075;-79
2024/01/12 03:51:53;;;;;;;2.15;1.35;;;3.90;83.70;;;;;;4978393;28;20014;-79
2024/01/12 03:54:20;;;;;;;4.20;1.70;;;4.00;83.70;;;;;;4990717;28;20022;-81
2024/01/12 03:56:46;;;;;;;2.85;1.80;;;3.90;83.70;;;;;;4972872;28;20073;-77
2024/01/12 03:59:11;;;;;;;3.85;1.60;;;3.90;83.80;;;;;;4984987;28;20026;-78
2024/01/12 04:01:41;;;;;;;3.25;1.40;;;3.90;83.80;;;;;;4985775;28;20054;-79
2024/01/12 04:04:07;;;;;;;5.95;1.50;;;3.90;83.70;;;;;;5007689;28;20425;-80
2024/01/12 04:06:32;;;;;;;3.00;1.65;;;3.90;83.70;;;;;;4987951;28;20014;-78
2024/01/12 04:08:58;;;;;;;2.63;1.50;;;3.90;83.70;;;;;;4995156;28;20022;-80
2024/01/12 04:11:24;;;;;;;3.70;1.30;;;3.90;83.70;;;;;;5000053;28;20021;-81
2024/01/12 04:13:49;;;;;;;2.05;1.25;;;3.90;83.80;;;;;;4992718;28;20026;-80
2024/01/12 04:16:15;;;;;;;2.35;1.45;;;3.90;83.90;;;;;;4984590;28;20029;-77
2024/01/12 04:18:41;;;;;;;1.75;1.30;;;3.90;83.90;;;;;;4989057;28;20093;-79
2024/01/12 04:21:07;;;;;;;2.17;1.40;;;3.90;83.90;;;;;;4978365;28;20026;-79
2024/01/12 04:23:32;;;;;;;2.50;1.30;;;4.00;83.90;;;;;;4984925;28;20029;-82
2024/01/12 04:25:58;;;;;;;2.28;1.20;;;4.00;83.90;;;;;;4999181;28;20325;-82
2024/01/12 04:28:23;;;;;;;4.00;1.60;;;4.00;83.90;;;;;;5010630;28;20053;-80
2024/01/12 04:30:49;;;;;;;2.35;1.17;;;4.00;83.80;;;;;;5014904;28;20076;-80
2024/01/12 04:33:14;;;;;;;2.92;1.40;;;4.00;83.80;;;;;;5001852;28;20034;-81
2024/01/12 04:35:40;;;;;;;1.98;1.20;;;4.00;83.80;;;;;;4995626;28;20033;-80
2024/01/12 04:38:06;;;;;;;2.80;1.50;;;4.00;83.80;;;;;;5012310;28;20366;-79
2024/01/12 04:40:31;;;;;;;2.65;1.70;;;4.10;83.80;;;;;;5001154;28;20054;-79
2024/01/12 04:42:57;;;;;;;1.90;1.27;;;4.10;83.80;;;;;;5003178;28;20504;-80
2024/01/12 04:45:23;;;;;;;2.03;1.20;;;4.10;83.80;;;;;;4993376;28;20393;-78
2024/01/12 04:47:48;;;;;;;2.25;1.38;;;4.10;83.90;;;;;;4989600;28;20032;-80
2024/01/12 04:50:14;;;;;;;3.35;1.30;;;4.10;83.90;;;;;;5001465;28;20108;-80
2024/01/12 04:52:39;;;;;;;3.28;1.40;;;4.10;83.80;;;;;;4994621;28;20073;-80
2024/01/12 04:55:05;;;;;;;1.95;1.30;;;4.10;83.90;;;;;;5011853;28;20221;-78
2024/01/12 04:57:30;;;;;;;2.88;1.38;;;4.10;83.90;;;;;;5011311;28;20014;-79
2024/01/12 04:59:56;;;;;;;2.00;1.30;;;4.10;83.90;;;;;;4992356;28;20022;-82
2024/01/12 05:02:21;;;;;;;2.35;1.40;;;4.10;83.90;;;;;;4985898;28;20102;-78
2024/01/12 05:04:47;;;;;;;1.63;1.30;;;4.10;84.00;;;;;;4974548;28;20019;-81
2024/01/12 05:07:13;;;;;;;3.05;1.30;;;4.00;84.10;;;;;;4983111;28;20019;-82
2024/01/12 05:09:38;;;;;;;2.38;1.30;;;4.10;84.30;;;;;;5005886;28;20097;-81
2024/01/12 05:12:04;;;;;;;2.50;1.30;;;4.00;84.10;;;;;;4987040;28;20019;-82
2024/01/12 05:14:33;;;;;;;2.20;1.48;;;4.00;84.20;;;;;;5005897;28;20022;-79
2024/01/12 05:16:59;;;;;;;4.80;1.65;;;4.00;84.30;;;;;;4988335;28;20038;-81
2024/01/12 05:19:24;;;;;;;2.83;1.40;;;4.00;84.20;;;;;;4989045;28;20068;-80
2024/01/12 05:21:50;;;;;;;2.38;1.40;;;4.00;84.20;;;;;;4982457;28;20019;-78
2024/01/12 05:24:16;;;;;;;2.30;1.48;;;4.00;84.30;;;;;;4987043;28;20033;-81
2024/01/12 05:26:43;;;;;;;1.42;1.33;;;4.00;84.20;;;;;;4989538;28;20038;-81
2024/01/12 05:29:09;;;;;;;2.25;1.33;;;4.10;84.10;;;;;;4990242;28;20029;-81
2024/01/12 05:31:35;;;;;;;2.75;1.50;;;4.10;84.10;;;;;;4979064;28;20030;-82
2024/01/12 05:34:00;;;;;;;1.38;1.15;;;4.10;84.10;;;;;;4991736;28;20023;-81
2024/01/12 05:36:26;;;;;;;2.97;1.60;;;4.10;84.00;;;;;;4987173;28;20031;-82
2024/01/12 05:38:51;;;;;;;2.55;1.40;;;4.10;84.00;;;;;;4984397;28;20102;-80
2024/01/12 05:41:17;;;;;;;1.58;1.30;;;4.10;84.10;;;;;;4984269;28;20013;-83
2024/01/12 05:43:43;;;;;;;1.90;1.35;;;4.00;84.10;;;;;;4987389;28;20034;-82
2024/01/12 05:46:08;;;;;;;3.40;1.38;;;4.10;84.20;;;;;;4991454;28;20023;-82
2024/01/12 05:48:34;;;;;;;2.50;1.38;;;4.10;84.20;;;;;;4984438;28;20510;-82
2024/01/12 05:51:00;;;;;;;2.30;1.30;;;4.10;84.20;;;;;;4994677;28;20034;-82
2024/01/12 05:53:25;;;;;;;3.95;1.55;;;4.10;84.30;;;;;;4992160;28;20482;-82
2024/01/12 05:55:54;;;;;;;2.53;1.35;;;4.10;84.20;;;;;;4993310;28;20022;-81
2024/01/12 05:58:20;;;;;;;2.20;1.42;;;4.10;84.40;;;;;;4977534;28;20082;-80
2024/01/12 06:00:47;;;;;;;2.13;1.30;;;4.10;84.30;;;;;;5001103;28;20109;-83
2024/01/12 06:03:13;;;;;;;1.73;1.20;;;4.10;84.30;;;;;;4980467;28;20027;-80
2024/01/12 06:05:40;;;;;;;2.78;1.25;;;4.10;84.20;;;;;;4981354;28;20418;-81
2024/01/12 06:08:05;;;;;;;2.35;1.30;;;4.10;84.30;;;;;;4982202;28;20046;-80
2024/01/12 06:10:31;;;;;;;4.05;1.38;;;4.10;84.30;;;;;;4989165;28;20026;-81
2024/01/12 06:12:56;;;;;;;4.53;1.58;;;4.10;84.20;;;;;;4991375;28;20041;-80
2024/01/12 06:15:22;;;;;;;5.30;1.38;;;4.10;84.20;;;;;;4992413;28;20081;-77
2024/01/12 06:17:48;;;;;;;2.25;1.55;;;4.00;84.20;;;;;;4981972;28;20390;-79
2024/01/12 06:20:14;;;;;;;1.95;1.40;;;4.00;84.50;;;;;;4980742;28;20022;-79
2024/01/12 06:22:40;;;;;;;3.08;1.48;;;4.00;84.60;;;;;;4992574;28;21227;-81
2024/01/12 06:25:06;;;;;;;2.10;1.40;;;4.00;84.50;;;;;;4987223;28;20098;-77
2024/01/12 06:27:31;;;;;;;2.25;1.48;;;4.10;84.50;;;;;;4985897;28;20102;-78
2024/01/12 06:29:57;;;;;;;2.33;1.48;;;4.00;84.40;;;;;;4988596;28;20033;-76
2024/01/12 06:32:22;;;;;;;4.45;1.70;;;4.00;84.50;;;;;;4988042;28;20034;-77
2024/01/12 06:34:48;;;;;;;2.97;1.42;;;4.00;84.60;;;;;;4991077;28;20030;-77
2024/01/12 06:37:13;;;;;;;2.72;1.33;;;4.10;84.60;;;;;;4988703;28;20043;-77
2024/01/12 06:39:39;;;;;;;3.35;1.67;;;4.00;84.50;;;;;;4993356;28;20116;-80
2024/01/12 06:42:05;;;;;;;3.53;1.55;;;4.10;84.50;;;;;;4993831;28;20473;-78
2024/01/12 06:44:31;;;;;;;3.13;1.60;;;4.10;84.60;;;;;;4989954;28;20045;-79
2024/01/12 06:46:57;;;;;;;3.55;1.50;;;4.00;84.60;;;;;;4996407;28;20096;-79
2024/01/12 06:49:23;;;;;;;3.20;1.60;;;4.00;84.80;;;;;;4984344;28;20030;-80
2024/01/12 06:51:48;;;;;;;2.45;1.70;;;4.00;84.80;;;;;;4982959;28;20031;-79
2024/01/12 06:54:14;;;;;;;3.25;1.63;;;4.00;84.80;;;;;;4985332;28;20030;-78
2024/01/12 06:56:39;;;;;;;2.22;1.50;;;4.00;84.80;;;;;;4985574;28;20042;-80
2024/01/12 06:59:05;;;;;;;1.90;1.30;;;4.10;84.70;;;;;;4991983;28;20052;-77
2024/01/12 07:01:31;;;;;;;2.17;1.23;;;4.00;84.60;;;;;;4988680;28;20118;-78
2024/01/12 07:03:57;;;;;;;2.47;1.50;;;4.10;84.70;;;;;;4979369;28;20025;-78
2024/01/12 07:06:22;;;;;;;2.38;1.60;;;4.10;84.70;;;;;;4986938;28;20065;-77
2024/01/12 07:08:48;;;;;;;3.88;1.45;;;4.10;84.70;;;;;;4987900;28;20368;-79
2024/01/12 07:11:13;;;;;;;2.25;1.42;;;4.10;84.70;;;;;;4981756;28;20383;-79
2024/01/12 07:13:39;;;;;;;1.98;1.40;;;4.00;84.70;;;;;;4982653;28;20035;-82
2024/01/12 07:16:04;;;;;;;3.03;1.60;;;4.10;84.70;;;;;;4983531;28;20081;-77
2024/01/12 07:18:30;;;;;;;2.85;1.50;;;4.10;84.70;;;;;;4982563;28;20403;-80
2024/01/12 07:20:57;;;;;;;1.80;1.48;;;4.10;84.60;;;;;;4980437;28;20022;-78
2024/01/12 07:23:23;;;;;;;2.13;1.40;;;4.10;84.70;;;;;;4990924;28;20034;-77
2024/01/12 07:25:48;;;;;;;1.90;1.40;;;4.10;84.80;;;;;;4993135;28;20617;-76
2024/01/12 07:28:15;;;;;;;2.67;1.33;;;4.10;84.80;;;;;;4980557;28;20029;-79
2024/01/12 07:30:41;;;;;;;1.92;1.25;;;4.10;84.90;;;;;;4992788;28;20054;-78
2024/01/12 07:33:06;;;;;;;2.40;1.30;;;4.10;84.80;;;;;;4974418;28;20077;-79
2024/01/12 07:35:32;;;;;;;2.45;1.40;;;4.10;84.70;;;;;;4983264;28;20097;-78
2024/01/12 07:37:57;;;;;;;3.70;1.30;;;4.10;84.80;;;;;;4984022;28;20042;-82
2024/01/12 07:40:23;;;;;;;2.88;1.30;;;4.10;84.80;;;;;;4984683;28;20454;-78
2024/01/12 07:42:48;;;;;;;2.85;1.52;;;4.10;84.90;;;;;;4985059;28;20402;-77
2024/01/12 07:45:14;;;;;;;1.27;1.13;;;4.10;85.50;;;;;;4978127;28;20030;-80
2024/01/12 07:47:41;;;;;;;4.65;1.40;;;4.10;84.80;;;;;;4995116;28;20081;-78
2024/01/12 07:50:06;;;;;;;1.70;1.50;;;4.10;84.80;;;;;;4994976;28;20039;-80
2024/01/12 07:52:32;;;;;;;2.30;1.30;;;4.20;84.90;;;;;;4985268;28;20033;-79
2024/01/12 07:54:58;;;;;;;1.48;1.20;;;4.20;84.70;;;;;;4992049;28;20591;-81
2024/01/12 07:57:23;;;;;;;2.08;1.30;;;4.20;84.80;;;;;;4984847;28;20072;-79
2024/01/12 07:59:49;;;;;;;2.10;1.20;;;4.30;84.70;;;;;;4975283;28;20098;-78
2024/01/12 08:02:15;;;;;;;1.58;1.30;;;4.20;84.60;;;;;;4985095;28;20496;-80
2024/01/12 08:04:41;;;;;;;2.38;1.40;;;4.30;84.70;;;;;;4984730;28;20031;-80
2024/01/12 08:07:06;;;;;;;3.13;1.40;;;4.30;84.70;;;;;;4982357;28;20019;-80
2024/01/12 08:09:32;;;;;;;2.05;1.30;;;4.30;84.70;;;;;;4983697;28;20011;-78
2024/01/12 08:11:58;;;;;;;1.55;1.33;;;4.30;84.80;;;;;;4976500;28;20708;-81
2024/01/12 08:14:23;;;;;;;1.83;1.20;;;4.20;84.80;;;;;;4984523;28;20371;-78
2024/01/12 08:16:49;;;;;;;3.50;1.50;;;4.30;85.00;;;;;;4978443;28;20077;-81
2024/01/12 08:19:15;;;;;;;3.00;1.40;;;4.30;85.00;;;;;;4986119;28;20025;-78
2024/01/12 08:21:41;;;;;;;1.90;1.30;;;4.30;84.90;;;;;;4989313;28;20113;-81
2024/01/12 08:24:06;;;;;;;1.75;1.13;;;4.30;84.90;;;;;;4988388;28;20031;-80
2024/01/12 08:26:32;;;;;;;2.17;1.40;;;4.30;84.90;;;;;;5009100;28;20504;-77
2024/01/12 08:29:01;;;;;;;1.33;1.15;;;4.30;84.90;;;;;;4981185;28;20022;-81
2024/01/12 08:31:30;;;;;;;1.83;1.50;;;4.30;85.00;;;;;;4993267;28;20022;-80
2024/01/12 08:33:56;;;;;;;4.45;1.67;;;4.30;85.00;;;;;;4979598;28;20027;-81
2024/01/12 08:36:21;;;;;;;3.03;1.70;;;4.30;85.00;;;;;;4992567;28;20282;-79
2024/01/12 08:38:47;;;;;;;2.13;1.60;;;4.30;85.00;;;;;;4980653;28;20397;-78
2024/01/12 08:41:13;;;;;;;2.60;1.40;;;4.40;85.00;;;;;;4983706;28;20062;-80
2024/01/12 08:43:39;;;;;;;1.58;1.25;;;4.40;84.90;;;;;;4991608;28;20113;-81
2024/01/12 08:46:05;;;;;;;1.77;1.40;;;4.40;84.80;;;;;;4989893;28;20406;-80
2024/01/12 08:48:31;;;;;;;3.78;1.90;;;4.40;84.70;;;;;;4982899;28;20153;-77
2024/01/12 08:50:58;;;;;;;1.83;1.30;;;4.50;85.10;;;;;;4984784;28;20400;-80
2024/01/12 08:53:23;;;;;;;2.35;1.52;;;4.50;84.80;;;;;;4985812;28;20026;-79
2024/01/12 08:55:49;;;;;;;2.28;1.30;;;4.50;84.70;;;;;;4983902;28;20435;-80
2024/01/12 08:58:14;;;;;;;2.00;1.35;;;4.50;84.80;;;;;;4977558;28;20027;-78
2024/01/12 09:00:40;;;;;;;1.67;1.25;;;4.60;84.80;;;;;;4983413;28;20395;-79
2024/01/12 09:03:05;;;;;;;2.42;1.20;;;4.60;84.70;;;;;;4979630;28;20409;-79
2024/01/12 09:05:31;;;;;;;3.30;1.38;;;4.60;84.70;;;;;;5006687;28;20503;-78
2024/01/12 09:07:57;;;;;;;2.63;1.25;;;4.60;84.60;;;;;;4984013;28;20031;-80
2024/01/12 09:10:22;;;;;;;1.48;1.35;;;4.60;84.80;;;;;;4985130;28;20019;-78
2024/01/12 09:12:48;;;;;;;2.22;1.15;;;4.60;84.60;;;;;;4978110;28;20026;-79
2024/01/12 09:15:14;;;;;;;3.05;1.42;;;4.60;84.60;;;;;;4981934;28;20070;-78
2024/01/12 09:17:40;;;;;;;2.45;1.25;;;4.60;84.70;;;;;;5006440;28;20574;-81
2024/01/12 09:20:07;;;;;;;1.88;1.13;;;4.60;84.70;;;;;;4992282;28;20014;-79
2024/01/12 09:22:33;;;;;;;1.25;1.10;;;4.70;84.70;;;;;;4990640;28;20034;-79
2024/01/12 09:24:58;;;;;;;1.75;1.20;;;4.70;84.60;;;;;;4988365;28;20500;-77
2024/01/12 09:27:24;;;;;;;1.75;1.10;;;4.70;84.50;;;;;;4989306;28;20065;-78
2024/01/12 09:29:49;;;;;;;1.65;1.20;;;4.70;84.40;;;;;;4988148;28;20398;-80
2024/01/12 09:32:15;;;;;;;1.25;1.15;;;4.70;84.50;;;;;;4981420;28;20031;-77
2024/01/12 09:34:41;;;;;;;2.25;1.40;;;4.80;84.60;;;;;;4988031;28;20026;-80
2024/01/12 09:37:06;;;;;;;2.08;1.20;;;4.70;84.50;;;;;;4986026;28;20022;-78
2024/01/12 09:39:32;;;;;;;1.67;1.20;;;4.80;84.60;;;;;;4988356;28;20064;-80
2024/01/12 09:42:00;;;;;;;3.10;1.20;;;4.80;84.60;;;;;;4985682;28;20490;-78
2024/01/12 09:44:28;;;;;;;2.15;1.00;;;4.80;84.50;;;;;;4982335;28;20019;-81
2024/01/12 09:46:57;;;;;;;1.42;1.20;;;4.90;84.90;;;;;;4984816;28;20029;-76
2024/01/12 09:49:30;;;;;;;1.40;1.30;;;4.90;84.40;;;;;;4979052;28;20041;-76
2024/01/12 09:52:00;;;;;;;2.30;1.17;;;4.90;84.40;;;;;;4981053;28;20057;-79
2024/01/12 09:54:26;;;;;;;1.67;1.20;;;5.00;84.40;;;;;;4990105;28;20037;-79
2024/01/12 09:56:52;;;;;;;2.40;1.40;;;5.00;84.30;;;;;;4979351;28;20018;-77
2024/01/12 09:59:21;;;;;;;2.35;1.15;;;5.00;84.30;;;;;;4994006;28;20051;-79
2024/01/12 10:01:48;;;;;;;1.73;1.30;;;4.90;84.20;;;;;;4983298;28;20066;-78
2024/01/12 10:04:14;;;;;;;0.90;0.90;;;5.00;84.90;;;;;;4984532;28;20022;-80
2024/01/12 10:06:39;;;;;;;2.92;1.00;;;5.00;84.30;;;;;;4989494;28;20414;-82
2024/01/12 10:09:06;;;;;;;2.88;1.10;;;5.00;84.40;;;;;;4991821;28;20076;-81
2024/01/12 10:11:32;;;;;;;1.77;1.30;;;5.00;84.40;;;;;;4991787;28;20031;-82
2024/01/12 10:13:57;;;;;;;2.63;1.25;;;5.10;84.60;;;;;;4987722;28;20106;-78
2024/01/12 10:16:28;;;;;;;2.47;1.25;;;5.10;84.50;;;;;;4993594;28;20029;-81
2024/01/12 10:18:57;;;;;;;1.65;1.27;;;5.10;84.30;;;;;;4984956;28;20448;-81
2024/01/12 10:21:24;;;;;;;3.88;1.40;;;5.10;84.30;;;;;;4983432;28;20054;-82
2024/01/12 10:24:03;;;;;;;1.98;1.33;;;5.10;84.30;;;;;;5005391;28;20492;-82
2024/01/12 10:26:28;;;;;;;2.33;1.40;;;5.20;84.20;;;;;;4993481;28;20033;-80
2024/01/12 10:28:54;;;;;;;1.90;1.52;;;5.10;84.20;;;;;;4991708;28;20030;-82
2024/01/12 10:31:20;;;;;;;1.95;1.40;;;5.10;84.20;;;;;;5007030;28;20027;-82
2024/01/12 10:33:46;;;;;;;2.67;1.70;;;5.10;84.30;;;;;;5006866;28;20449;-83
2024/01/12 10:36:18;;;;;;;2.58;1.42;;;5.10;84.30;;;;;;4990042;28;20117;-79
2024/01/12 10:38:45;;;;;;;2.85;1.55;;;5.10;84.40;;;;;;4988298;28;20174;-81
2024/01/12 10:41:13;;;;;;;2.28;1.27;;;5.00;84.40;;;;;;4991460;28;20117;-81
2024/01/12 10:43:39;;;;;;;1.55;1.35;;;5.10;84.50;;;;;;4984945;28;20064;-83
2024/01/12 10:46:16;;;;;;;3.60;1.50;;;5.10;84.50;;;;;;4987073;28;20386;-81
2024/01/12 10:48:52;;;;;;;2.33;1.55;;;5.20;84.50;;;;;;4991475;28;20073;-83
2024/01/12 10:51:21;;;;;;;3.40;1.92;;;5.20;84.50;;;;;;4987355;28;20121;-82
2024/01/12 10:54:02;;;;;;;1.88;1.42;;;5.20;84.40;;;;;;4985584;28;20054;-83
2024/01/12 10:56:29;;;;;;;2.22;1.40;;;5.20;84.50;;;;;;5003420;28;20018;-82
2024/01/12 10:58:55;;;;;;;1.98;1.40;;;5.30;84.40;;;;;;4977605;28;20019;-77
2024/01/12 11:01:21;;;;;;;3.13;1.40;;;5.30;84.40;;;;;;4992740;28;20025;-81
2024/01/12 11:03:47;;;;;;;2.60;1.20;;;5.30;84.30;;;;;;4989086;28;20037;-83
2024/01/12 11:06:14;;;;;;;1.48;1.35;;;5.30;84.30;;;;;;4990855;28;20053;-80
2024/01/12 11:08:41;;;;;;;2.03;1.20;;;5.30;84.30;;;;;;5008534;28;20027;-80
2024/01/12 11:11:08;;;;;;;3.47;1.30;;;5.30;84.40;;;;;;4989745;28;20033;-82
2024/01/12 11:13:34;;;;;;;2.33;1.50;;;5.40;84.40;;;;;;4998833;28;20104;-81
2024/01/12 11:16:00;;;;;;;2.67;1.55;;;5.40;84.40;;;;;;4987071;28;20031;-82
2024/01/12 11:18:27;;;;;;;2.03;1.42;;;5.40;84.40;;;;;;4992859;28;20061;-78
2024/01/12 11:21:03;;;;;;;2.65;1.70;;;5.40;84.40;;;;;;4992308;28;20096;-81
2024/01/12 11:23:29;;;;;;;3.85;1.80;;;5.40;84.30;;;;;;4994249;28;20050;-82
2024/01/12 11:25:55;;;;;;;1.67;1.50;;;5.40;84.20;;;;;;4989012;28;20029;-80
2024/01/12 11:28:20;;;;;;;2.15;1.48;;;5.40;84.30;;;;;;4973166;28;20058;-81
2024/01/12 11:30:50;;;;;;;2.50;1.33;;;5.50;84.30;;;;;;4990381;28;20058;-83
2024/01/12 11:33:17;;;;;;;3.35;1.92;;;5.50;84.30;;;;;;4990690;28;20050;-83
2024/01/12 11:35:47;;;;;;;2.20;1.38;;;5.50;84.20;;;;;;4987131;28;20057;-81
2024/01/12 11:38:12;;;;;;;1.58;1.40;;;5.50;84.20;;;;;;4998737;28;20022;-82
2024/01/12 11:40:38;;;;;;;2.67;1.40;;;5.50;84.30;;;;;;4993899;28;20096;-82
2024/01/12 11:43:04;;;;;;;1.50;1.30;;;5.50;84.30;;;;;;4994556;28;20356;-80
2024/01/12 11:45:31;;;;;;;1.77;1.35;;;5.60;84.20;;;;;;4992815;28;20205;-82
2024/01/12 11:48:01;;;;;;;2.33;1.35;;;5.60;84.20;;;;;;4996714;28;20022;-82
2024/01/12 11:50:27;;;;;;;4.78;1.50;;;5.70;84.20;;;;;;4991534;28;20406;-82
2024/01/12 11:52:58;;;;;;;2.10;1.52;;;5.60;84.10;;;;;;4987105;28;20022;-80
2024/01/12 11:55:24;;;;;;;1.52;1.20;;;5.60;84.20;;;;;;4993615;28;20113;-79
2024/01/12 11:57:51;;;;;;;2.53;1.40;;;5.70;84.30;;;;;;4987695;28;20037;-82
2024/01/12 12:00:17;;;;;;;1.60;1.20;;;5.70;84.20;;;;;;4990715;28;20023;-80
2024/01/12 12:02:42;;;;;;;1.85;1.20;;;5.70;84.10;;;;;;4996353;28;20050;-85
2024/01/12 12:05:09;;;;;;;2.15;1.40;;;5.80;84.10;;;;;;4987339;28;20490;-79
2024/01/12 12:07:38;;;;;;;3.22;1.23;;;5.80;84.10;;;;;;4985561;28;20486;-84
2024/01/12 12:10:05;;;;;;;3.45;1.40;;;5.90;84.10;;;;;;4995856;28;20481;-82
2024/01/12 12:12:30;;;;;;;2.65;1.30;;;5.90;83.90;;;;;;4988601;28;20674;-81
2024/01/12 12:15:04;;;;;;;1.15;1.05;;;5.80;84.00;;;;;;4987872;28;20053;-82
2024/01/12 12:17:31;;;;;;;2.75;1.40;;;5.90;84.10;;;;;;4989061;28;20069;-84
2024/01/12 12:19:57;;;;;;;1.60;1.20;;;5.90;84.10;;;;;;4994953;28;20109;-83
2024/01/12 12:22:24;;;;;;;2.80;1.27;;;5.90;84.00;;;;;;4991134;28;20038;-80
2024/01/12 12:24:50;;;;;;;2.45;1.15;;;6.00;83.90;;;;;;4990622;28;20046;-83
2024/01/12 12:27:16;;;;;;;3.72;1.30;;;6.00;84.00;;;;;;4987953;28;20022;-83
2024/01/12 12:29:44;;;;;;;3.80;1.42;;;6.00;83.90;;;;;;5000277;28;20459;-81
2024/01/12 12:32:13;;;;;;;2.35;1.60;;;6.00;83.90;;;;;;4992500;28;20172;-79
2024/01/12 12:34:40;;;;;;;3.67;1.48;;;6.00;83.90;;;;;;4993923;28;20228;-79
2024/01/12 12:37:09;;;;;;;3.35;1.48;;;6.00;83.90;;;;;;4986826;28;20027;-80
2024/01/12 12:39:38;;;;;;;3.40;1.52;;;6.00;83.90;;;;;;4987977;28;20034;-81
2024/01/12 12:42:04;;;;;;;3.85;1.23;;;6.00;84.00;;;;;;4990062;28;20037;-81
2024/01/12 12:44:32;;;;;;;1.73;1.17;;;6.00;84.00;;;;;;4995483;28;20029;-80
2024/01/12 12:46:58;;;;;;;1.52;1.20;;;6.00;84.00;;;;;;4983839;28;20350;-82
2024/01/12 12:49:54;;;;;;;0.98;0.88;;;6.10;84.10;;;;;;4981257;28;20057;-79
2024/01/12 12:52:19;;;;;;;3.08;1.30;;;6.10;84.00;;;;;;4975708;28;20027;-84